Time;durP1;ratioP1;P1;durP2;ratioP2;P2;SDS_P1;SDS_P2;PMS_P1;PMS_P2;Temp;Humidity;BMP_temperature;BMP_pressure;BME280_temperature;BME280_humidity;BME280_pressure;Samples;Min_cycle;Max_cycle;Signal;HPM_P1;HPM_P2
2023/07/25 00:00:33;;;;;;;5.55;2.28;;;14.80;99.90;;;;;;5007248;28;20048;-78
2023/07/25 00:02:59;;;;;;;2.30;1.65;;;14.80;99.90;;;;;;5003867;28;20042;-79
2023/07/25 00:05:24;;;;;;;4.90;2.50;;;14.80;99.90;;;;;;5006094;28;20076;-78
2023/07/25 00:07:50;;;;;;;7.53;2.38;;;14.80;99.90;;;;;;5019715;28;20416;-79
2023/07/25 00:10:15;;;;;;;1.83;1.25;;;14.80;99.90;;;;;;5006511;28;20052;-78
2023/07/25 00:12:41;;;;;;;10.48;2.50;;;14.80;99.90;;;;;;5019277;28;20054;-79
2023/07/25 00:15:07;;;;;;;6.82;2.45;;;14.80;99.90;;;;;;5019252;28;20040;-79
2023/07/25 00:17:33;;;;;;;5.53;2.35;;;14.90;99.90;;;;;;4988402;28;20095;-78
2023/07/25 00:19:58;;;;;;;3.53;1.77;;;14.90;99.90;;;;;;5006282;28;20025;-78
2023/07/25 00:22:24;;;;;;;2.15;1.55;;;14.80;99.90;;;;;;5003279;28;20140;-78
2023/07/25 00:24:49;;;;;;;2.60;1.83;;;14.80;99.90;;;;;;5003546;28;20046;-79
2023/07/25 00:27:15;;;;;;;2.63;2.30;;;15.00;99.90;;;;;;5006238;28;20034;-79
2023/07/25 00:29:40;;;;;;;2.20;1.95;;;14.90;99.90;;;;;;5004512;28;20040;-79
2023/07/25 00:32:06;;;;;;;2.10;1.85;;;14.80;99.90;;;;;;5008624;28;20105;-79
2023/07/25 00:34:32;;;;;;;4.10;2.08;;;14.90;99.90;;;;;;5003296;28;20038;-78
2023/07/25 00:36:58;;;;;;;5.32;2.80;;;14.80;99.90;;;;;;5005563;28;20034;-79
2023/07/25 00:39:23;;;;;;;4.63;1.67;;;14.80;99.90;;;;;;5019359;28;20034;-78
2023/07/25 00:41:49;;;;;;;5.15;2.80;;;14.80;99.90;;;;;;5016740;28;20053;-78
2023/07/25 00:44:14;;;;;;;4.72;2.60;;;14.90;99.90;;;;;;5005223;28;20034;-78
2023/07/25 00:46:43;;;;;;;6.60;3.20;;;14.70;99.90;;;;;;5006236;28;20034;-78
2023/07/25 00:49:08;;;;;;;7.28;3.42;;;14.70;99.90;;;;;;4975015;28;20088;-78
2023/07/25 00:51:34;;;;;;;6.43;2.75;;;14.80;99.90;;;;;;4988854;28;20496;-78
2023/07/25 00:54:00;;;;;;;6.65;1.98;;;14.70;99.90;;;;;;4986709;28;20049;-78
2023/07/25 00:56:26;;;;;;;2.88;1.52;;;14.80;99.90;;;;;;5003217;28;20030;-78
2023/07/25 00:58:51;;;;;;;7.55;2.83;;;14.80;99.90;;;;;;5009909;28;20049;-78
2023/07/25 01:01:17;;;;;;;1.55;1.45;;;15.00;99.90;;;;;;5005790;28;20038;-79
2023/07/25 01:03:43;;;;;;;6.78;2.60;;;14.90;99.90;;;;;;5004602;28;20065;-79
2023/07/25 01:06:11;;;;;;;2.03;1.42;;;14.90;99.90;;;;;;4988569;28;20041;-78
2023/07/25 01:08:51;;;;;;;8.70;2.75;;;14.90;99.90;;;;;;5005875;28;20401;-78
2023/07/25 01:11:17;;;;;;;5.97;2.83;;;14.80;99.90;;;;;;5002560;28;20487;-78
2023/07/25 01:13:43;;;;;;;4.82;2.53;;;14.80;99.90;;;;;;5008700;28;20121;-79
2023/07/25 01:16:09;;;;;;;7.57;2.88;;;14.70;99.90;;;;;;5002422;28;20552;-78
2023/07/25 01:18:35;;;;;;;6.75;2.13;;;14.80;99.90;;;;;;4987611;28;20605;-78
2023/07/25 01:21:01;;;;;;;4.03;1.50;;;14.80;99.90;;;;;;4987121;28;20052;-78
2023/07/25 01:23:28;;;;;;;4.75;2.80;;;14.80;99.90;;;;;;4988879;28;20118;-78
2023/07/25 01:25:54;;;;;;;7.78;2.40;;;14.80;99.90;;;;;;5006823;28;20042;-78
2023/07/25 01:28:19;;;;;;;8.80;3.28;;;14.80;99.90;;;;;;5019542;28;20170;-78
2023/07/25 01:30:45;;;;;;;3.50;2.38;;;14.70;99.90;;;;;;5003871;28;20057;-78
2023/07/25 01:33:10;;;;;;;7.40;2.95;;;14.70;99.90;;;;;;4986512;28;20041;-78
2023/07/25 01:35:36;;;;;;;6.57;3.00;;;14.70;99.90;;;;;;5003883;28;20026;-78
2023/07/25 01:38:01;;;;;;;11.30;2.60;;;14.70;99.90;;;;;;5010323;28;20033;-78
2023/07/25 01:40:27;;;;;;;5.55;3.92;;;14.60;99.90;;;;;;5002977;28;20145;-78
2023/07/25 01:42:52;;;;;;;5.68;2.83;;;14.60;99.90;;;;;;4990554;28;20042;-78
2023/07/25 01:45:18;;;;;;;8.43;3.10;;;14.50;99.90;;;;;;5020822;28;20401;-78
2023/07/25 01:47:44;;;;;;;6.38;2.67;;;14.60;99.90;;;;;;4987860;28;20116;-79
2023/07/25 01:50:09;;;;;;;10.18;3.67;;;14.70;99.90;;;;;;4981977;28;20478;-78
2023/07/25 01:52:36;;;;;;;5.97;3.05;;;14.50;99.90;;;;;;5008440;28;20034;-78
2023/07/25 01:55:02;;;;;;;5.93;2.95;;;14.50;99.90;;;;;;5005452;28;20034;-78
2023/07/25 01:57:28;;;;;;;6.78;3.13;;;14.50;99.90;;;;;;5007702;28;20038;-78
2023/07/25 01:59:56;;;;;;;9.50;3.10;;;14.50;99.90;;;;;;4985188;28;20056;-78
2023/07/25 02:02:22;;;;;;;9.55;2.60;;;14.50;99.90;;;;;;4994469;28;20036;-78
2023/07/25 02:04:47;;;;;;;6.47;3.45;;;14.50;99.90;;;;;;4990827;28;20137;-77
2023/07/25 02:07:13;;;;;;;6.47;3.50;;;14.40;99.90;;;;;;5006592;28;20437;-78
2023/07/25 02:09:38;;;;;;;8.48;3.17;;;14.50;99.90;;;;;;4989451;28;20409;-77
2023/07/25 02:12:05;;;;;;;4.90;3.25;;;14.40;99.90;;;;;;5010360;28;20041;-77
2023/07/25 02:14:31;;;;;;;6.07;3.45;;;14.40;99.90;;;;;;4989315;28;20474;-78
2023/07/25 02:16:56;;;;;;;6.38;2.97;;;14.50;99.90;;;;;;5007075;28;20062;-78
2023/07/25 02:19:22;;;;;;;6.03;2.78;;;14.40;99.90;;;;;;5022166;28;20125;-79
2023/07/25 02:21:47;;;;;;;7.47;2.80;;;14.30;99.90;;;;;;4989649;28;20041;-80
2023/07/25 02:24:13;;;;;;;6.22;3.63;;;14.40;99.90;;;;;;5007641;28;20038;-80
2023/07/25 02:26:38;;;;;;;7.75;3.95;;;14.30;99.90;;;;;;4990664;28;20092;-80
2023/07/25 02:29:04;;;;;;;7.57;3.45;;;14.30;99.90;;;;;;5021336;28;20033;-80
2023/07/25 02:31:29;;;;;;;7.07;3.55;;;14.20;99.90;;;;;;5006645;28;20041;-79
2023/07/25 02:33:55;;;;;;;5.85;3.28;;;14.20;99.90;;;;;;4989904;28;20037;-80
2023/07/25 02:36:21;;;;;;;9.63;4.47;;;14.20;99.90;;;;;;5006395;28;20366;-79
2023/07/25 02:38:46;;;;;;;9.63;3.95;;;14.20;99.90;;;;;;5004275;28;20035;-79
2023/07/25 02:41:12;;;;;;;7.82;3.60;;;14.10;99.90;;;;;;5003569;28;20041;-79
2023/07/25 02:43:37;;;;;;;5.40;2.92;;;14.10;99.90;;;;;;5007660;28;20109;-80
2023/07/25 02:46:03;;;;;;;11.65;4.07;;;14.20;99.90;;;;;;5004710;28;20038;-79
2023/07/25 02:48:28;;;;;;;9.73;4.05;;;14.10;99.90;;;;;;5005208;28;20124;-80
2023/07/25 02:50:54;;;;;;;9.60;4.40;;;14.00;99.90;;;;;;4991012;28;20192;-82
2023/07/25 02:53:19;;;;;;;12.98;4.53;;;13.90;99.90;;;;;;4989207;28;20121;-79
2023/07/25 02:55:45;;;;;;;10.55;4.05;;;13.80;99.90;;;;;;5003195;28;20030;-81
2023/07/25 02:58:12;;;;;;;6.78;3.72;;;13.70;99.90;;;;;;5006056;28;20084;-81
2023/07/25 03:00:38;;;;;;;10.95;4.07;;;13.60;99.90;;;;;;5005409;28;20394;-81
2023/07/25 03:03:04;;;;;;;7.47;4.40;;;13.80;99.90;;;;;;4980133;28;20522;-81
2023/07/25 03:05:29;;;;;;;10.73;4.85;;;13.50;99.90;;;;;;5005069;28;20038;-81
2023/07/25 03:07:56;;;;;;;10.18;4.72;;;13.50;99.90;;;;;;5007593;28;20037;-81
2023/07/25 03:10:22;;;;;;;9.18;4.32;;;13.50;99.90;;;;;;5004494;28;20517;-79
2023/07/25 03:12:47;;;;;;;9.20;5.13;;;13.50;99.90;;;;;;4990152;28;20065;-81
2023/07/25 03:15:13;;;;;;;17.33;5.75;;;13.50;99.90;;;;;;5007124;28;20113;-81
2023/07/25 03:17:38;;;;;;;7.03;4.88;;;13.40;99.90;;;;;;5007339;28;20103;-81
2023/07/25 03:20:06;;;;;;;8.23;3.92;;;13.20;99.90;;;;;;5006110;28;20064;-81
2023/07/25 03:22:31;;;;;;;18.27;5.28;;;13.30;99.90;;;;;;5004124;28;20037;-81
2023/07/25 03:24:57;;;;;;;10.90;4.93;;;13.30;99.90;;;;;;4990207;28;20042;-81
2023/07/25 03:27:22;;;;;;;10.80;5.45;;;13.30;99.90;;;;;;5020905;28;20033;-81
2023/07/25 03:29:48;;;;;;;10.52;4.95;;;13.10;99.90;;;;;;4989508;28;20038;-81
2023/07/25 03:32:13;;;;;;;12.38;4.88;;;13.10;99.90;;;;;;5005842;28;20033;-81
2023/07/25 03:34:39;;;;;;;13.45;5.43;;;13.10;99.90;;;;;;4989746;28;20097;-81
2023/07/25 03:37:05;;;;;;;7.72;5.13;;;13.20;99.90;;;;;;5007001;28;20030;-81
2023/07/25 03:39:31;;;;;;;7.35;5.10;;;13.30;99.90;;;;;;5004401;28;20036;-81
2023/07/25 03:41:56;;;;;;;8.45;4.03;;;13.20;99.90;;;;;;5005740;28;20393;-81
2023/07/25 03:44:22;;;;;;;9.73;5.28;;;13.20;99.90;;;;;;4988122;28;20076;-81
2023/07/25 03:46:47;;;;;;;12.13;5.78;;;13.20;99.90;;;;;;5007184;28;20569;-81
2023/07/25 03:49:13;;;;;;;12.55;5.88;;;13.00;99.90;;;;;;5021355;28;20037;-81
2023/07/25 03:51:40;;;;;;;11.38;5.60;;;13.00;99.90;;;;;;4987279;28;20036;-81
2023/07/25 03:54:06;;;;;;;12.00;6.43;;;12.90;99.90;;;;;;4985785;28;20034;-81
2023/07/25 03:56:32;;;;;;;16.80;6.10;;;13.00;99.90;;;;;;5003378;28;20030;-81
2023/07/25 03:58:58;;;;;;;11.85;6.10;;;13.00;99.90;;;;;;4987695;28;20065;-81
2023/07/25 04:01:24;;;;;;;12.18;5.85;;;12.90;99.90;;;;;;5005464;28;20409;-81
2023/07/25 04:03:49;;;;;;;14.75;6.13;;;12.90;99.90;;;;;;5006252;28;20037;-81
2023/07/25 04:06:15;;;;;;;12.50;5.07;;;13.00;99.90;;;;;;5019842;28;20034;-80
2023/07/25 04:08:41;;;;;;;18.15;7.25;;;13.00;99.90;;;;;;4988266;28;20091;-81
2023/07/25 04:11:06;;;;;;;11.98;7.28;;;13.00;99.90;;;;;;5003347;28;20099;-81
2023/07/25 04:13:32;;;;;;;19.23;6.55;;;13.10;99.90;;;;;;5003479;28;20444;-81
2023/07/25 04:15:57;;;;;;;12.13;6.75;;;13.10;99.90;;;;;;4988183;28;20498;-81
2023/07/25 04:18:23;;;;;;;13.68;7.30;;;13.10;99.90;;;;;;5020054;28;20038;-81
2023/07/25 04:20:48;;;;;;;11.15;6.38;;;13.10;99.90;;;;;;5005299;28;20367;-81
2023/07/25 04:23:15;;;;;;;18.38;7.47;;;13.20;99.90;;;;;;5019332;28;20046;-82
2023/07/25 04:25:41;;;;;;;17.20;7.50;;;13.20;99.90;;;;;;5003134;28;20194;-82
2023/07/25 04:28:07;;;;;;;14.57;7.32;;;13.10;99.90;;;;;;5004351;28;20568;-81
2023/07/25 04:30:33;;;;;;;12.63;7.55;;;13.10;99.90;;;;;;5006060;28;20374;-81
2023/07/25 04:32:58;;;;;;;15.15;6.75;;;13.20;99.90;;;;;;5002113;28;20034;-81
2023/07/25 04:35:24;;;;;;;13.98;6.97;;;13.20;99.90;;;;;;5006470;28;20099;-81
2023/07/25 04:37:49;;;;;;;12.30;8.05;;;13.20;99.90;;;;;;5002364;28;20490;-81
2023/07/25 04:40:15;;;;;;;14.98;6.82;;;13.20;99.90;;;;;;5019773;28;20026;-81
2023/07/25 04:42:41;;;;;;;10.88;7.20;;;13.20;99.90;;;;;;4972884;28;20042;-81
2023/07/25 04:45:07;;;;;;;11.25;7.25;;;13.20;99.90;;;;;;4979168;28;20095;-81
2023/07/25 04:47:32;;;;;;;13.32;7.22;;;13.20;99.90;;;;;;5000882;28;20455;-81
2023/07/25 04:49:58;;;;;;;15.98;6.95;;;13.20;99.90;;;;;;4989686;28;20060;-81
2023/07/25 04:52:23;;;;;;;20.88;7.82;;;13.20;99.90;;;;;;4989868;28;20077;-81
2023/07/25 04:54:52;;;;;;;12.90;7.10;;;13.20;99.90;;;;;;4988114;28;20034;-81
2023/07/25 04:57:18;;;;;;;12.15;7.82;;;13.20;99.90;;;;;;4984064;28;20026;-81
2023/07/25 04:59:43;;;;;;;13.35;7.20;;;13.20;99.90;;;;;;4986992;28;20038;-81
2023/07/25 05:02:09;;;;;;;8.27;5.75;;;13.30;99.90;;;;;;5003587;28;20045;-80
2023/07/25 05:04:34;;;;;;;12.60;6.50;;;13.30;99.90;;;;;;4987143;28;20038;-80
2023/07/25 05:07:00;;;;;;;16.90;7.75;;;13.40;99.90;;;;;;4987577;28;20076;-82
2023/07/25 05:09:25;;;;;;;17.17;8.30;;;13.40;99.90;;;;;;4996471;28;20087;-79
2023/07/25 05:11:51;;;;;;;14.65;8.40;;;13.50;99.90;;;;;;5002217;28;20053;-80
2023/07/25 05:14:17;;;;;;;18.30;9.10;;;13.60;99.90;;;;;;4986650;28;20118;-80
2023/07/25 05:16:43;;;;;;;24.65;9.68;;;13.70;99.90;;;;;;4988875;28;20080;-81
2023/07/25 05:19:08;;;;;;;14.02;9.60;;;13.90;99.90;;;;;;4973560;28;20451;-81
2023/07/25 05:21:34;;;;;;;14.57;9.43;;;14.00;99.90;;;;;;5004403;28;20070;-81
2023/07/25 05:24:00;;;;;;;21.48;9.23;;;14.10;99.90;;;;;;4993831;28;20129;-78
2023/07/25 05:26:25;;;;;;;18.98;8.63;;;14.20;99.90;;;;;;5007262;28;20060;-77
2023/07/25 05:28:51;;;;;;;17.52;8.60;;;14.20;99.90;;;;;;5009015;28;20459;-78
2023/07/25 05:31:16;;;;;;;12.55;8.35;;;14.40;99.90;;;;;;4989552;28;20124;-78
2023/07/25 05:33:42;;;;;;;15.45;7.63;;;14.50;99.90;;;;;;5023071;28;20030;-78
2023/07/25 05:36:08;;;;;;;23.35;8.43;;;14.60;99.90;;;;;;5005950;28;20469;-77
2023/07/25 05:38:34;;;;;;;17.33;9.32;;;14.80;99.90;;;;;;4990728;28;20044;-77
2023/07/25 05:40:59;;;;;;;11.88;7.55;;;15.00;99.90;;;;;;4989922;28;20050;-78
2023/07/25 05:43:25;;;;;;;10.15;6.93;;;15.10;99.90;;;;;;4989358;28;20072;-78
2023/07/25 05:45:50;;;;;;;12.05;6.07;;;15.40;99.90;;;;;;4990682;28;20038;-78
2023/07/25 05:48:16;;;;;;;9.80;6.68;;;15.60;99.90;;;;;;4989255;28;20037;-77
2023/07/25 05:50:41;;;;;;;10.93;6.65;;;15.70;99.90;;;;;;5004402;28;20504;-78
2023/07/25 05:53:07;;;;;;;9.75;6.63;;;16.00;99.90;;;;;;5002192;28;20042;-78
2023/07/25 05:55:32;;;;;;;13.95;5.55;;;16.10;99.90;;;;;;5005644;28;20041;-78
2023/07/25 05:57:58;;;;;;;12.27;5.15;;;16.40;99.90;;;;;;5004592;28;20034;-78
2023/07/25 06:00:24;;;;;;;13.43;4.85;;;16.70;99.90;;;;;;4993448;28;20034;-78
2023/07/25 06:02:49;;;;;;;14.07;5.68;;;16.90;99.90;;;;;;5006497;28;20041;-78
2023/07/25 06:05:15;;;;;;;11.73;4.47;;;17.10;99.90;;;;;;5007330;28;20038;-78
2023/07/25 06:07:41;;;;;;;8.13;4.18;;;17.40;99.90;;;;;;5005226;28;20109;-78
2023/07/25 06:10:07;;;;;;;15.10;4.30;;;17.60;99.90;;;;;;4991572;28;20394;-78
2023/07/25 06:12:33;;;;;;;8.73;3.35;;;17.90;99.90;;;;;;5004795;28;20092;-78
2023/07/25 06:14:59;;;;;;;16.65;3.83;;;18.20;99.90;;;;;;4992598;28;20038;-79
2023/07/25 06:17:24;;;;;;;9.52;3.17;;;18.40;99.90;;;;;;4988391;28;20022;-78
2023/07/25 06:19:50;;;;;;;6.57;3.03;;;18.50;99.90;;;;;;4992420;28;20034;-78
2023/07/25 06:22:15;;;;;;;9.07;2.63;;;18.40;99.90;;;;;;4986562;28;20045;-79
2023/07/25 06:24:41;;;;;;;8.05;2.42;;;18.40;99.90;;;;;;4987420;28;20034;-79
2023/07/25 06:27:07;;;;;;;5.65;2.42;;;18.40;99.90;;;;;;4987631;28;20114;-79
2023/07/25 06:29:32;;;;;;;7.60;2.83;;;18.30;99.90;;;;;;4989001;28;20022;-79
2023/07/25 06:31:58;;;;;;;3.80;2.15;;;18.20;99.90;;;;;;4991452;28;20038;-79
2023/07/25 06:34:24;;;;;;;8.63;2.97;;;18.10;99.90;;;;;;5012422;28;20050;-79
2023/07/25 06:36:49;;;;;;;7.75;2.50;;;18.20;99.90;;;;;;5007423;28;20544;-78
2023/07/25 06:39:15;;;;;;;7.35;2.13;;;18.10;99.90;;;;;;4991567;28;20080;-78
2023/07/25 06:41:44;;;;;;;4.40;2.38;;;18.10;99.90;;;;;;5007455;28;20014;-78
2023/07/25 06:44:09;;;;;;;6.47;2.28;;;18.00;99.90;;;;;;4991348;28;20049;-78
2023/07/25 06:46:35;;;;;;;4.85;2.15;;;18.10;99.90;;;;;;4990664;28;20390;-78
2023/07/25 06:49:05;;;;;;;3.70;2.00;;;18.10;99.90;;;;;;4993474;28;20036;-78
2023/07/25 06:51:32;;;;;;;10.55;2.50;;;18.20;99.90;;;;;;5004523;28;20026;-78
2023/07/25 06:53:58;;;;;;;8.20;2.35;;;18.30;99.90;;;;;;4985425;28;20532;-78
2023/07/25 06:56:24;;;;;;;7.90;2.85;;;18.50;99.90;;;;;;4990559;28;20117;-79
2023/07/25 06:58:49;;;;;;;17.88;2.97;;;18.70;99.90;;;;;;4984142;28;20235;-78
2023/07/25 07:01:15;;;;;;;10.68;2.78;;;18.90;99.90;;;;;;4979162;28;20022;-78
2023/07/25 07:03:40;;;;;;;9.45;2.47;;;19.10;99.90;;;;;;4997992;28;20022;-79
2023/07/25 07:06:06;;;;;;;7.57;1.92;;;19.40;99.90;;;;;;4985414;28;20402;-78
2023/07/25 07:08:32;;;;;;;10.23;2.70;;;19.70;99.90;;;;;;5013965;28;20481;-77
2023/07/25 07:10:57;;;;;;;11.93;2.03;;;19.80;99.90;;;;;;4982577;28;20061;-77
2023/07/25 07:13:23;;;;;;;5.55;2.25;;;19.90;99.90;;;;;;5002774;28;20029;-78
2023/07/25 07:15:49;;;;;;;11.98;2.38;;;20.00;99.90;;;;;;4985019;28;20030;-77
2023/07/25 07:18:15;;;;;;;3.33;1.70;;;20.20;99.90;;;;;;4968606;28;20096;-78
2023/07/25 07:20:45;;;;;;;7.50;3.05;;;20.30;99.90;;;;;;4985195;28;20036;-77
2023/07/25 07:23:13;;;;;;;7.78;2.38;;;20.60;99.90;;;;;;5016143;28;20643;-78
2023/07/25 07:25:41;;;;;;;6.22;2.35;;;21.00;99.90;;;;;;5000897;28;20053;-78
2023/07/25 07:28:06;;;;;;;9.30;2.20;;;21.20;99.90;;;;;;4987731;28;20022;-77
2023/07/25 07:30:32;;;;;;;7.53;2.85;;;21.50;99.90;;;;;;4998900;28;20026;-77
2023/07/25 07:32:58;;;;;;;8.02;2.35;;;21.80;99.90;;;;;;4986020;28;20092;-78
2023/07/25 07:35:23;;;;;;;7.93;1.90;;;22.00;99.90;;;;;;4985422;28;20644;-78
2023/07/25 07:37:49;;;;;;;8.82;2.67;;;22.40;99.90;;;;;;5000626;28;20505;-78
2023/07/25 07:40:15;;;;;;;9.27;2.45;;;22.60;99.90;;;;;;5000058;28;20014;-78
2023/07/25 07:42:40;;;;;;;16.55;3.53;;;22.80;99.90;;;;;;4983856;28;20474;-77
2023/07/25 07:45:06;;;;;;;5.78;3.08;;;23.10;99.90;;;;;;5002735;28;20027;-78
2023/07/25 07:47:32;;;;;;;5.47;2.38;;;23.20;99.90;;;;;;5015740;28;20503;-78
2023/07/25 07:49:58;;;;;;;8.13;2.60;;;23.40;99.90;;;;;;4986478;28;20109;-78
2023/07/25 07:52:23;;;;;;;9.82;2.45;;;23.40;99.90;;;;;;5001101;28;20021;-78
2023/07/25 07:54:49;;;;;;;8.40;3.10;;;23.40;99.90;;;;;;4984281;28;20028;-78
2023/07/25 07:57:14;;;;;;;9.30;2.95;;;23.50;99.90;;;;;;4968302;28;20219;-78
2023/07/25 07:59:42;;;;;;;8.15;2.50;;;23.60;99.90;;;;;;5001043;28;20030;-78
2023/07/25 08:02:08;;;;;;;8.18;2.80;;;23.60;99.90;;;;;;4984930;28;20030;-78
2023/07/25 08:04:33;;;;;;;10.52;2.90;;;23.80;99.90;;;;;;4986389;28;20400;-78
2023/07/25 08:06:59;;;;;;;5.18;2.13;;;23.90;99.90;;;;;;4986162;28;20054;-78
2023/07/25 08:09:24;;;;;;;10.10;2.78;;;23.90;99.90;;;;;;4983732;28;20114;-78
2023/07/25 08:11:50;;;;;;;3.70;2.05;;;23.90;99.90;;;;;;4983384;28;20038;-78
2023/07/25 08:14:15;;;;;;;4.35;1.75;;;23.80;99.90;;;;;;4999192;28;20110;-77
2023/07/25 08:16:41;;;;;;;6.93;2.00;;;23.80;99.90;;;;;;5014362;28;20130;-78
2023/07/25 08:19:07;;;;;;;9.32;2.22;;;23.90;99.90;;;;;;4985684;28;20111;-77
2023/07/25 08:21:32;;;;;;;9.18;2.40;;;23.80;99.90;;;;;;4986129;28;20156;-77
2023/07/25 08:23:58;;;;;;;2.88;1.50;;;23.80;99.90;;;;;;4987362;28;20030;-77
2023/07/25 08:26:23;;;;;;;4.25;1.92;;;23.80;99.90;;;;;;4984019;28;20327;-77
2023/07/25 08:28:49;;;;;;;4.95;1.35;;;23.80;99.90;;;;;;5001709;28;20097;-77
2023/07/25 08:31:14;;;;;;;3.70;1.27;;;23.90;99.90;;;;;;4984808;28;20029;-77
2023/07/25 08:33:42;;;;;;;6.30;1.33;;;23.70;99.90;;;;;;4985175;28;20030;-77
2023/07/25 08:36:08;;;;;;;6.88;1.40;;;23.60;99.90;;;;;;4984364;28;20029;-78
2023/07/25 08:38:34;;;;;;;2.13;0.93;;;23.50;99.90;;;;;;4971113;28;20038;-76
2023/07/25 08:41:21;;;;;;;9.05;1.73;;;23.50;99.90;;;;;;4976203;28;20041;-77
2023/07/25 08:43:46;;;;;;;7.47;1.50;;;23.40;99.90;;;;;;5000653;28;20397;-77
2023/07/25 08:46:14;;;;;;;6.38;1.48;;;23.40;99.90;;;;;;4983104;28;20034;-78
2023/07/25 08:48:41;;;;;;;6.75;1.58;;;23.20;99.90;;;;;;4999630;28;20109;-77
2023/07/25 08:51:08;;;;;;;4.55;1.35;;;23.10;99.90;;;;;;5001820;28;20069;-77
2023/07/25 08:53:40;;;;;;;3.30;1.30;;;23.00;99.90;;;;;;4994066;28;20040;-77
2023/07/25 08:56:06;;;;;;;5.18;1.88;;;23.00;99.90;;;;;;5006836;28;20064;-78
2023/07/25 08:58:31;;;;;;;10.52;1.92;;;23.00;99.90;;;;;;4990621;28;20038;-77
2023/07/25 09:00:57;;;;;;;2.35;1.40;;;23.00;99.90;;;;;;4989966;28;20272;-78
2023/07/25 09:03:23;;;;;;;5.10;1.40;;;23.10;99.90;;;;;;4990596;28;20114;-78
2023/07/25 09:05:48;;;;;;;5.90;1.80;;;23.20;99.90;;;;;;5006135;28;20056;-78
2023/07/25 09:08:14;;;;;;;5.97;1.45;;;23.20;99.90;;;;;;5006185;28;20516;-78
2023/07/25 09:10:39;;;;;;;5.65;1.70;;;23.30;99.90;;;;;;4988511;28;20030;-77
2023/07/25 09:13:05;;;;;;;5.78;1.23;;;23.50;99.90;;;;;;4987538;28;20481;-77
2023/07/25 09:15:31;;;;;;;2.75;1.38;;;23.60;99.90;;;;;;4989988;28;20376;-77
2023/07/25 09:17:56;;;;;;;4.43;1.20;;;23.60;99.90;;;;;;4989374;28;20128;-77
2023/07/25 09:20:22;;;;;;;6.78;1.52;;;24.00;99.90;;;;;;4990844;28;20034;-77
2023/07/25 09:22:48;;;;;;;6.32;1.40;;;24.30;99.90;;;;;;5004181;28;20499;-77
2023/07/25 09:25:14;;;;;;;7.20;1.48;;;24.80;99.90;;;;;;5006274;28;20065;-77
2023/07/25 09:27:39;;;;;;;2.13;1.30;;;25.00;99.90;;;;;;4988337;28;20508;-78
2023/07/25 09:30:11;;;;;;;3.85;1.60;;;25.00;99.90;;;;;;4989095;28;20117;-77
2023/07/25 09:32:37;;;;;;;6.20;1.30;;;25.20;99.00;;;;;;4988559;28;20424;-77
2023/07/25 09:35:06;;;;;;;5.15;1.77;;;25.50;99.40;;;;;;5006046;28;20026;-77
2023/07/25 09:37:32;;;;;;;4.65;1.05;;;25.80;97.50;;;;;;4990224;28;20038;-77
2023/07/25 09:39:57;;;;;;;4.63;1.23;;;25.90;96.60;;;;;;4990637;28;20393;-77
2023/07/25 09:42:23;;;;;;;3.42;1.63;;;26.00;97.80;;;;;;4991782;28;20037;-76
2023/07/25 09:44:51;;;;;;;5.35;1.63;;;26.10;95.40;;;;;;4979827;28;20080;-77
2023/07/25 09:47:26;;;;;;;2.90;1.05;;;26.30;94.00;;;;;;4989140;28;20514;-76
2023/07/25 09:49:53;;;;;;;3.63;1.55;;;26.60;93.90;;;;;;5021639;28;20034;-76
2023/07/25 09:52:20;;;;;;;4.75;2.03;;;26.60;94.50;;;;;;5004881;28;20044;-77
2023/07/25 09:54:46;;;;;;;4.88;1.50;;;26.90;93.30;;;;;;5005270;28;20048;-76
2023/07/25 09:57:11;;;;;;;7.57;1.77;;;27.00;92.30;;;;;;4991349;28;20531;-76
2023/07/25 09:59:37;;;;;;;5.40;1.70;;;27.10;92.60;;;;;;4984697;28;20048;-76
2023/07/25 10:02:06;;;;;;;4.20;1.45;;;27.30;91.70;;;;;;4986665;28;20086;-77
2023/07/25 10:04:34;;;;;;;7.90;1.60;;;27.40;89.60;;;;;;4988785;28;20084;-77
2023/07/25 10:07:00;;;;;;;2.80;1.35;;;27.10;90.20;;;;;;4990742;28;20041;-77
2023/07/25 10:09:25;;;;;;;5.47;1.98;;;27.10;91.20;;;;;;4982477;28;20128;-77
2023/07/25 10:11:52;;;;;;;5.15;1.60;;;27.10;89.80;;;;;;4988592;28;20493;-77
2023/07/25 10:14:18;;;;;;;4.97;1.67;;;27.20;87.10;;;;;;4989778;28;20595;-76
2023/07/25 10:16:44;;;;;;;8.50;1.70;;;27.00;90.00;;;;;;4989192;28;20038;-77
2023/07/25 10:19:10;;;;;;;4.22;1.65;;;26.90;88.50;;;;;;4988591;28;20030;-77
2023/07/25 10:21:51;;;;;;;6.82;1.90;;;26.70;85.00;;;;;;4988490;28;20057;-76
2023/07/25 10:24:17;;;;;;;7.03;1.88;;;26.50;84.30;;;;;;5001836;28;20026;-77
2023/07/25 10:26:58;;;;;;;4.78;1.25;;;26.20;84.50;;;;;;4986016;28;20030;-77
2023/07/25 10:29:43;;;;;;;5.45;1.77;;;26.00;86.30;;;;;;5021750;28;20041;-77
2023/07/25 10:32:13;;;;;;;6.68;1.73;;;25.70;85.50;;;;;;4988737;28;20041;-76
2023/07/25 10:35:02;;;;;;;5.53;2.60;;;25.50;84.60;;;;;;5005769;28;20025;-77
2023/07/25 10:37:38;;;;;;;8.05;1.83;;;25.30;85.50;;;;;;5003853;28;20037;-77
2023/07/25 10:40:12;;;;;;;10.82;1.90;;;25.10;85.90;;;;;;5007855;28;20030;-77
2023/07/25 10:42:43;;;;;;;13.45;2.08;;;24.70;85.70;;;;;;5021221;28;20496;-78
2023/07/25 10:45:29;;;;;;;9.10;2.08;;;24.50;86.80;;;;;;5005708;28;20117;-77
2023/07/25 10:47:59;;;;;;;5.05;2.22;;;24.40;87.30;;;;;;5008266;28;20489;-79
2023/07/25 10:50:25;;;;;;;6.60;2.00;;;24.20;86.80;;;;;;4989856;28;20040;-78
2023/07/25 10:52:51;;;;;;;5.43;2.55;;;24.00;87.00;;;;;;4989502;28;20034;-77
2023/07/25 10:55:17;;;;;;;5.03;1.80;;;23.90;86.60;;;;;;5004270;28;20026;-77
2023/07/25 10:58:07;;;;;;;10.95;2.08;;;23.70;87.00;;;;;;4981058;28;20038;-77
2023/07/25 11:00:36;;;;;;;8.50;2.22;;;23.70;87.10;;;;;;4999270;28;20080;-77
2023/07/25 11:03:31;;;;;;;9.35;1.95;;;23.60;87.50;;;;;;4988084;28;20025;-77
2023/07/25 11:06:06;;;;;;;7.28;2.10;;;23.60;89.60;;;;;;4980727;28;20470;-76
2023/07/25 11:08:35;;;;;;;5.20;1.55;;;23.70;88.80;;;;;;5018936;28;20065;-78
2023/07/25 11:11:02;;;;;;;9.15;2.17;;;23.70;89.10;;;;;;4995888;28;20057;-78
2023/07/25 11:13:28;;;;;;;6.93;1.77;;;23.80;88.10;;;;;;4986240;28;20088;-79
2023/07/25 11:15:55;;;;;;;4.93;1.40;;;23.90;89.00;;;;;;4971137;28;20389;-78
2023/07/25 11:18:20;;;;;;;5.55;1.58;;;24.00;90.40;;;;;;4986301;28;20042;-78
2023/07/25 11:20:58;;;;;;;7.22;1.80;;;24.10;89.90;;;;;;4998741;28;20519;-78
2023/07/25 11:23:24;;;;;;;6.90;1.65;;;24.30;89.90;;;;;;5003413;28;20053;-78
2023/07/25 11:25:57;;;;;;;3.20;1.20;;;24.90;87.10;;;;;;4986799;28;20112;-78
2023/07/25 11:28:24;;;;;;;3.17;1.55;;;25.10;87.60;;;;;;5011318;28;20516;-79
2023/07/25 11:30:51;;;;;;;8.10;1.92;;;25.30;87.50;;;;;;4984295;28;20035;-77
2023/07/25 11:33:17;;;;;;;5.78;2.10;;;25.40;86.20;;;;;;4978489;28;20052;-77
2023/07/25 11:35:43;;;;;;;7.40;1.95;;;25.40;81.90;;;;;;4991717;28;20033;-77
2023/07/25 11:38:10;;;;;;;10.55;2.75;;;25.00;86.60;;;;;;5018947;28;20033;-77
2023/07/25 11:40:36;;;;;;;10.23;1.80;;;24.50;90.20;;;;;;5004746;28;20405;-78
2023/07/25 11:43:02;;;;;;;5.40;1.85;;;23.90;93.30;;;;;;5005689;28;20519;-78
2023/07/25 11:45:28;;;;;;;6.65;2.22;;;23.40;94.00;;;;;;4979831;28;20113;-78
2023/07/25 11:47:53;;;;;;;8.30;2.13;;;23.00;95.00;;;;;;5004074;28;20073;-77
2023/07/25 11:50:19;;;;;;;7.03;2.70;;;22.50;96.10;;;;;;5004150;28;20034;-78
2023/07/25 11:52:45;;;;;;;5.28;2.53;;;22.30;96.50;;;;;;4988245;28;20484;-77
2023/07/25 11:55:11;;;;;;;2.80;1.77;;;22.10;97.40;;;;;;5003052;28;20034;-78
2023/07/25 11:57:37;;;;;;;6.30;1.98;;;21.90;98.10;;;;;;4986656;28;20037;-78
2023/07/25 12:00:06;;;;;;;4.78;1.55;;;21.90;98.10;;;;;;4986944;28;20034;-78
2023/07/25 12:02:41;;;;;;;8.27;2.25;;;21.70;98.60;;;;;;5019639;28;20485;-78
2023/07/25 12:05:08;;;;;;;2.80;1.63;;;21.70;99.30;;;;;;4988980;28;20528;-79
2023/07/25 12:08:00;;;;;;;3.78;1.27;;;21.70;99.90;;;;;;5005299;28;20264;-78
2023/07/25 12:10:30;;;;;;;4.35;2.13;;;21.70;99.10;;;;;;5018995;28;20026;-79
2023/07/25 12:12:56;;;;;;;4.40;1.70;;;21.80;99.80;;;;;;4971181;28;20561;-79
2023/07/25 12:15:42;;;;;;;4.70;1.80;;;21.90;99.80;;;;;;4999614;28;20124;-79
2023/07/25 12:18:23;;;;;;;6.15;1.85;;;21.90;99.90;;;;;;4982417;28;20061;-80
2023/07/25 12:20:49;;;;;;;3.45;1.42;;;22.00;99.90;;;;;;4970553;28;20058;-79
2023/07/25 12:23:15;;;;;;;5.47;1.73;;;22.10;99.90;;;;;;4978124;28;20778;-79
2023/07/25 12:25:40;;;;;;;4.50;1.95;;;22.10;99.90;;;;;;4999315;28;20116;-79
2023/07/25 12:28:06;;;;;;;3.50;1.83;;;22.10;99.90;;;;;;5005856;28;20117;-79
2023/07/25 12:30:31;;;;;;;3.53;1.45;;;22.10;99.90;;;;;;5003225;28;20018;-79
2023/07/25 12:32:57;;;;;;;3.22;1.67;;;22.10;99.90;;;;;;5018851;28;20038;-79
2023/07/25 12:35:23;;;;;;;4.68;1.83;;;22.10;99.80;;;;;;5003597;28;20136;-79
2023/07/25 12:37:48;;;;;;;2.67;1.40;;;22.00;99.90;;;;;;5002880;28;20482;-79
2023/07/25 12:40:14;;;;;;;6.95;1.90;;;22.10;99.90;;;;;;4299730;28;10000054;-79